createdAt,value
2023-02-22T00:02:29.139Z,1.29
2023-02-22T00:05:20.062Z,1.23
2023-02-22T00:08:11.411Z,1.05
2023-02-22T00:11:02.986Z,1.09
2023-02-22T00:13:50.634Z,1.37
2023-02-22T00:16:37.270Z,1.10
2023-02-22T00:19:23.703Z,1.29
2023-02-22T00:22:09.811Z,1.24
2023-02-22T00:24:57.541Z,1.10
2023-02-22T00:27:44.256Z,1.12
2023-02-22T00:30:31.885Z,1.13
2023-02-22T00:33:18.520Z,1.13
2023-02-22T00:36:05.283Z,1.13
2023-02-22T00:38:51.670Z,1.04
2023-02-22T00:41:38.144Z,0.77
2023-02-22T00:44:24.507Z,0.98
2023-02-22T00:47:11.072Z,0.88
2023-02-22T00:49:57.469Z,0.91
2023-02-22T00:52:44.937Z,1.04
2023-02-22T00:55:33.667Z,1.01
2023-02-22T00:58:20.557Z,0.84
2023-02-22T01:01:06.910Z,0.94
2023-02-22T01:03:53.735Z,1.04
2023-02-22T01:06:40.013Z,1.20
2023-02-22T01:09:26.970Z,1.12
2023-02-22T01:12:13.655Z,1.25
2023-02-22T01:15:00.207Z,0.98
2023-02-22T01:17:46.846Z,0.96
2023-02-22T01:20:33.781Z,0.94
2023-02-22T01:23:21.402Z,0.77
2023-02-22T01:26:07.733Z,0.69
2023-02-22T01:28:54.388Z,0.86
2023-02-22T01:31:44.036Z,1.04
2023-02-22T01:34:32.963Z,0.96
2023-02-22T01:37:19.220Z,0.75
2023-02-22T01:40:09.087Z,0.60
2023-02-22T01:42:58.483Z,0.35
2023-02-22T01:45:53.400Z,0.48
2023-02-22T01:48:44.508Z,-0.02
2023-02-22T01:51:37.770Z,0.46
2023-02-22T01:54:31.410Z,0.51
2023-02-22T01:57:21.907Z,0.48
2023-02-22T02:00:16.750Z,0.15
2023-02-22T02:03:11.919Z,0.32
2023-02-22T02:06:00.712Z,0.32
2023-02-22T02:09:00.532Z,0.26
2023-02-22T02:11:47.490Z,0.06
2023-02-22T02:14:33.821Z,-0.09
2023-02-22T02:17:22.914Z,0.05
2023-02-22T02:20:27.661Z,0.23
2023-02-22T02:23:41.167Z,0.26
2023-02-22T02:27:05.392Z,0.32
2023-02-22T02:30:45.741Z,0.07
2023-02-22T02:33:34.796Z,0.19
2023-02-22T02:36:33.198Z,0.22
2023-02-22T02:39:29.020Z,0.30
2023-02-22T02:42:22.153Z,0.26
2023-02-22T02:45:14.425Z,0.11
2023-02-22T02:48:05.476Z,0.28
2023-02-22T02:50:54.709Z,0.21
2023-02-22T02:53:45.495Z,0.30
2023-02-22T02:56:31.628Z,0.02
2023-02-22T02:59:35.122Z,0.32
2023-02-22T03:02:59.544Z,0.42
2023-02-22T03:06:01.958Z,0.11
2023-02-22T03:09:23.939Z,0.05
2023-02-22T03:12:27.609Z,0.35
2023-02-22T03:15:21.936Z,0.24
2023-02-22T03:18:32.018Z,0.50
2023-02-22T03:21:31.190Z,0.46
2023-02-22T03:24:32.855Z,0.10
2023-02-22T03:27:34.643Z,-0.02
2023-02-22T03:30:27.625Z,0.05
2023-02-22T03:33:22.239Z,0.16
2023-02-22T03:36:21.426Z,0.16
2023-02-22T03:39:15.987Z,0.27
2023-02-22T03:42:11.915Z,0.09
2023-02-22T03:45:04.514Z,-0.10
2023-02-22T03:48:11.497Z,0.22
2023-02-22T03:50:58.504Z,0.13
2023-02-22T03:53:45.552Z,0.11
2023-02-22T03:56:37.135Z,0.15
2023-02-22T03:59:27.612Z,0.15
2023-02-22T04:02:14.136Z,0.10
2023-02-22T04:05:00.799Z,-0.09
2023-02-22T04:07:47.646Z,0.18
2023-02-22T04:10:37.888Z,-0.12
2023-02-22T04:13:24.082Z,0.05
2023-02-22T04:16:13.464Z,-0.01
2023-02-22T04:19:00.391Z,0.40
2023-02-22T04:21:47.233Z,0.50
2023-02-22T04:24:40.271Z,0.46
2023-02-22T04:27:26.703Z,0.11
2023-02-22T04:30:20.605Z,0.17
2023-02-22T04:33:07.760Z,0.14
2023-02-22T04:35:57.715Z,0.04
2023-02-22T04:38:44.485Z,0.20
2023-02-22T04:41:31.732Z,0.41
2023-02-22T04:44:17.876Z,0.48
2023-02-22T04:47:04.270Z,0.42
2023-02-22T04:49:51.049Z,0.30
2023-02-22T04:52:39.012Z,0.46
2023-02-22T04:55:25.331Z,0.35
2023-02-22T04:58:11.806Z,0.21
2023-02-22T05:01:01.014Z,0.04
2023-02-22T05:03:48.988Z,0.04
2023-02-22T05:06:35.193Z,0.06
2023-02-22T05:09:21.483Z,-0.14
2023-02-22T05:12:07.965Z,0.01
2023-02-22T05:14:54.289Z,0.07
2023-02-22T05:17:40.466Z,-0.19
2023-02-22T05:20:29.584Z,-0.14
2023-02-22T05:23:16.137Z,-0.05
2023-02-22T05:26:02.548Z,-0.08
2023-02-22T05:28:48.703Z,-0.17
2023-02-22T05:31:35.118Z,-0.17
2023-02-22T05:34:21.420Z,-0.38
2023-02-22T05:37:07.724Z,-0.33
2023-02-22T05:39:55.630Z,-0.36
2023-02-22T05:42:42.107Z,-0.17
2023-02-22T05:45:28.992Z,-0.29
2023-02-22T05:48:15.216Z,-0.41
2023-02-22T05:51:01.709Z,-0.06
2023-02-22T05:53:48.168Z,0.01
2023-02-22T05:56:34.334Z,-0.29
2023-02-22T05:59:20.865Z,0.22
2023-02-22T06:02:08.422Z,0.16
2023-02-22T06:04:54.811Z,-0.10
2023-02-22T06:07:41.024Z,-0.30
2023-02-22T06:10:27.851Z,-0.21
2023-02-22T06:13:14.328Z,-0.47
2023-02-22T06:16:00.683Z,-0.43
2023-02-22T06:18:47.566Z,-0.41
2023-02-22T06:21:33.866Z,-0.49
2023-02-22T06:24:20.856Z,-0.21
2023-02-22T06:27:08.222Z,-0.58
2023-02-22T06:29:54.325Z,-0.03
2023-02-22T06:32:40.761Z,0.23
2023-02-22T06:35:27.370Z,0.23
2023-02-22T06:38:22.263Z,0.27
2023-02-22T06:41:09.773Z,0.44
2023-02-22T06:43:55.949Z,0.39
2023-02-22T06:46:48.181Z,0.47
2023-02-22T06:49:34.620Z,0.01
2023-02-22T06:52:20.975Z,0.42
2023-02-22T06:55:07.455Z,0.48
2023-02-22T06:57:53.800Z,0.66
2023-02-22T07:00:40.169Z,0.66
2023-02-22T07:03:26.546Z,0.92
2023-02-22T07:06:12.818Z,1.05
2023-02-22T07:08:59.665Z,1.00
2023-02-22T07:11:45.829Z,0.96
2023-02-22T07:14:32.129Z,1.33
2023-02-22T07:17:18.695Z,1.43
2023-02-22T07:20:05.215Z,1.58
2023-02-22T07:22:52.239Z,1.51
2023-02-22T07:25:38.703Z,1.61
2023-02-22T07:28:25.260Z,1.44
2023-02-22T07:31:11.596Z,1.81
2023-02-22T07:33:57.766Z,1.95
2023-02-22T07:36:44.258Z,1.88
2023-02-22T07:39:31.244Z,2.09
2023-02-22T07:42:17.692Z,2.35
2023-02-22T07:45:05.749Z,2.51
2023-02-22T07:47:52.529Z,2.61
2023-02-22T07:50:39.860Z,2.90
2023-02-22T07:53:33.384Z,3.05
2023-02-22T07:56:19.378Z,3.14
2023-02-22T07:59:05.773Z,3.10
2023-02-22T08:01:52.113Z,3.03
2023-02-22T08:04:39.423Z,3.32
2023-02-22T08:07:25.691Z,3.30
2023-02-22T08:10:14.597Z,3.34
2023-02-22T08:13:01.585Z,3.50
2023-02-22T08:15:49.922Z,3.93
2023-02-22T08:18:38.464Z,4.17
2023-02-22T08:21:24.891Z,4.04
2023-02-22T08:24:11.317Z,4.25
2023-02-22T08:26:57.517Z,4.12
2023-02-22T08:29:44.115Z,4.21
2023-02-22T08:32:30.721Z,4.57
2023-02-22T08:35:20.562Z,4.60
2023-02-22T08:38:08.350Z,4.84
2023-02-22T08:40:55.004Z,4.96
2023-02-22T08:43:41.136Z,5.20
2023-02-22T08:46:27.469Z,5.30
2023-02-22T08:49:13.888Z,5.35
2023-02-22T08:52:00.759Z,5.54
2023-02-22T08:54:48.160Z,5.88
2023-02-22T08:57:34.509Z,6.01
2023-02-22T09:00:24.675Z,6.20
2023-02-22T09:03:13.979Z,6.37
2023-02-22T09:06:00.815Z,6.39
2023-02-22T09:08:47.326Z,6.60
2023-02-22T09:11:33.850Z,6.63
2023-02-22T09:14:20.044Z,7.06
2023-02-22T09:17:06.547Z,6.90
2023-02-22T09:19:52.860Z,7.21
2023-02-22T09:22:40.464Z,7.28
2023-02-22T09:25:27.174Z,7.54
2023-02-22T09:28:13.415Z,7.75
2023-02-22T09:30:59.780Z,7.94
2023-02-22T09:33:47.511Z,8.20
2023-02-22T09:36:33.967Z,8.55
2023-02-22T09:39:21.876Z,8.56
2023-02-22T09:42:28.550Z,8.76
2023-02-22T09:45:27.834Z,8.79
2023-02-22T09:48:22.068Z,8.98
2023-02-22T09:51:15.479Z,9.37
2023-02-22T09:54:04.707Z,9.39
2023-02-22T09:56:55.410Z,9.73
2023-02-22T10:00:13.225Z,9.83
2023-02-22T10:03:26.041Z,10.01
2023-02-22T10:06:15.563Z,10.16
2023-02-22T10:09:07.972Z,10.14
2023-02-22T10:12:23.644Z,10.14
2023-02-22T10:15:28.400Z,10.37
2023-02-22T10:18:54.920Z,10.52
2023-02-22T10:22:18.529Z,10.89
2023-02-22T10:25:12.707Z,10.96
2023-02-22T10:28:05.912Z,10.99
2023-02-22T10:31:01.993Z,11.15
2023-02-22T10:33:52.820Z,11.15
2023-02-22T10:36:39.365Z,11.48
2023-02-22T10:39:31.064Z,11.43
2023-02-22T10:42:17.513Z,11.80
2023-02-22T10:45:05.029Z,11.97
2023-02-22T10:47:55.694Z,11.99
2023-02-22T10:50:45.649Z,12.03
2023-02-22T10:53:33.146Z,12.28
2023-02-22T10:56:24.243Z,12.24
2023-02-22T10:59:10.479Z,12.34
2023-02-22T11:01:57.492Z,12.69
2023-02-22T11:04:55.955Z,12.53
2023-02-22T11:07:42.655Z,12.66
2023-02-22T11:10:37.816Z,13.02
2023-02-22T11:13:32.365Z,13.20
2023-02-22T11:16:21.394Z,13.49
2023-02-22T11:19:29.772Z,13.54
2023-02-22T11:22:30.823Z,13.77
2023-02-22T11:25:25.968Z,13.94
2023-02-22T11:28:35.822Z,13.97
2023-02-22T11:31:25.749Z,13.75
2023-02-22T11:34:34.281Z,13.91
2023-02-22T11:37:32.395Z,13.79
2023-02-22T11:40:22.950Z,13.80
2023-02-22T11:43:20.296Z,14.08
2023-02-22T11:46:09.841Z,14.16
2023-02-22T11:48:58.265Z,14.34
2023-02-22T11:52:09.862Z,14.34
2023-02-22T11:55:32.752Z,14.26
2023-02-22T11:58:53.719Z,14.24
2023-02-22T12:01:52.056Z,14.23
2023-02-22T12:05:10.764Z,14.26
2023-02-22T12:08:19.862Z,14.31
2023-02-22T12:11:12.789Z,14.35
2023-02-22T12:14:26.589Z,14.35
2023-02-22T12:18:00.171Z,14.35
2023-02-22T12:20:56.655Z,14.36
2023-02-22T12:23:50.828Z,14.53
2023-02-22T12:26:48.910Z,14.53
2023-02-22T12:30:03.477Z,14.64
2023-02-22T12:32:53.740Z,14.67
2023-02-22T12:35:46.161Z,14.83
2023-02-22T12:38:39.554Z,14.95
2023-02-22T12:41:40.356Z,15.19
2023-02-22T12:44:35.671Z,15.27
2023-02-22T12:47:30.240Z,15.17
2023-02-22T12:50:29.677Z,15.26
2023-02-22T12:53:38.199Z,15.31
2023-02-22T12:56:43.729Z,15.42
2023-02-22T12:59:38.775Z,15.26
2023-02-22T13:02:34.942Z,15.33
2023-02-22T13:05:21.408Z,15.33
2023-02-22T13:08:21.169Z,15.32
2023-02-22T13:11:24.797Z,15.25
2023-02-22T13:14:40.083Z,15.39
2023-02-22T13:17:46.105Z,15.05
2023-02-22T13:21:01.518Z,15.31
2023-02-22T13:24:05.791Z,15.15
2023-02-22T13:26:59.157Z,15.16
2023-02-22T13:29:50.229Z,15.15
2023-02-22T13:32:54.983Z,15.17
2023-02-22T13:36:06.661Z,15.39
2023-02-22T13:39:19.348Z,15.52
2023-02-22T13:42:27.157Z,15.41
2023-02-22T13:45:28.587Z,15.34
2023-02-22T13:48:36.808Z,15.47
2023-02-22T13:51:51.608Z,15.47
2023-02-22T13:54:54.354Z,15.45
2023-02-22T13:57:51.673Z,15.39
2023-02-22T14:00:55.978Z,15.19
2023-02-22T14:03:42.379Z,15.33
2023-02-22T14:06:41.555Z,15.32
2023-02-22T14:09:56.455Z,15.21
2023-02-22T14:12:48.380Z,15.29
2023-02-22T14:15:35.552Z,15.28
2023-02-22T14:18:22.081Z,14.90
2023-02-22T14:21:14.380Z,15.26
2023-02-22T14:24:15.412Z,15.39
2023-02-22T14:27:04.083Z,15.48
2023-02-22T14:30:00.526Z,15.27
2023-02-22T14:32:49.174Z,15.47
2023-02-22T14:35:49.550Z,15.19
2023-02-22T14:38:36.304Z,15.38
2023-02-22T14:41:27.724Z,15.13
2023-02-22T14:44:20.340Z,15.09
2023-02-22T14:47:13.820Z,15.15
2023-02-22T14:50:13.971Z,15.06
2023-02-22T14:53:02.665Z,14.87
2023-02-22T14:55:58.235Z,14.83
2023-02-22T14:58:55.075Z,14.69
2023-02-22T15:02:09.801Z,14.52
2023-02-22T15:04:53.182Z,14.64
2023-02-22T15:07:39.838Z,14.56
2023-02-22T15:10:29.012Z,14.79
2023-02-22T15:13:18.572Z,14.68
2023-02-22T15:16:08.752Z,14.48
2023-02-22T15:18:59.122Z,14.53
2023-02-22T15:21:46.655Z,14.37
2023-02-22T15:24:35.146Z,14.44
2023-02-22T15:27:22.073Z,14.35
2023-02-22T15:30:15.815Z,14.13
2023-02-22T15:33:24.659Z,14.21
2023-02-22T15:36:18.790Z,13.72
2023-02-22T15:39:08.773Z,13.78
2023-02-22T15:42:09.008Z,13.74
2023-02-22T15:44:56.582Z,13.62
2023-02-22T15:47:43.381Z,13.43
2023-02-22T15:50:34.744Z,13.38
2023-02-22T15:53:21.016Z,13.67
2023-02-22T15:56:29.943Z,13.51
2023-02-22T15:59:22.553Z,13.45
2023-02-22T16:02:31.543Z,13.34
2023-02-22T16:05:19.023Z,13.17
2023-02-22T16:08:15.863Z,13.08
2023-02-22T16:11:06.230Z,12.89
2023-02-22T16:13:54.295Z,12.87
2023-02-22T16:16:41.479Z,12.73
2023-02-22T16:19:45.023Z,12.64
2023-02-22T16:22:34.892Z,12.43
2023-02-22T16:25:28.972Z,12.29
2023-02-22T16:28:36.148Z,12.04
2023-02-22T16:31:34.302Z,11.81
2023-02-22T16:34:20.583Z,11.77
2023-02-22T16:37:22.126Z,11.50
2023-02-22T16:40:22.449Z,11.53
2023-02-22T16:43:14.937Z,11.14
2023-02-22T16:46:03.501Z,11.04
2023-02-22T16:48:49.693Z,10.38
2023-02-22T16:51:43.935Z,10.50
2023-02-22T16:54:36.402Z,10.37
2023-02-22T16:57:24.373Z,10.11
2023-02-22T17:00:31.355Z,9.73
2023-02-22T17:03:18.655Z,9.68
2023-02-22T17:06:05.237Z,9.48
2023-02-22T17:08:52.476Z,9.33
2023-02-22T17:11:39.122Z,9.33
2023-02-22T17:14:31.044Z,9.19
2023-02-22T17:17:17.607Z,9.02
2023-02-22T17:20:11.255Z,9.07
2023-02-22T17:22:59.586Z,8.79
2023-02-22T17:25:55.314Z,8.98
2023-02-22T17:28:43.781Z,8.76
2023-02-22T17:31:31.201Z,8.95
2023-02-22T17:34:17.855Z,8.83
2023-02-22T17:37:04.853Z,8.52
2023-02-22T17:39:51.099Z,8.58
2023-02-22T17:42:37.475Z,8.36
2023-02-22T17:45:24.872Z,8.30
2023-02-22T17:48:12.150Z,8.13
2023-02-22T17:50:58.428Z,7.92
2023-02-22T17:53:45.099Z,7.96
2023-02-22T17:56:31.380Z,7.83
2023-02-22T17:59:17.779Z,7.43
2023-02-22T18:02:04.382Z,7.64
2023-02-22T18:04:50.684Z,7.50
2023-02-22T18:07:37.469Z,7.57
2023-02-22T18:10:26.426Z,7.36
2023-02-22T18:13:16.685Z,7.10
2023-02-22T18:16:05.590Z,7.34
2023-02-22T18:18:52.510Z,7.13
2023-02-22T18:21:39.048Z,6.97
2023-02-22T18:24:26.573Z,6.87
2023-02-22T18:27:14.687Z,7.05
2023-02-22T18:30:01.243Z,6.81
2023-02-22T18:32:47.610Z,6.78
2023-02-22T18:35:33.875Z,6.87
2023-02-22T18:38:24.176Z,6.86
2023-02-22T18:41:12.921Z,6.84
2023-02-22T18:44:00.449Z,6.63
2023-02-22T18:46:46.773Z,6.62
2023-02-22T18:49:33.108Z,6.41
2023-02-22T18:52:19.533Z,6.57
2023-02-22T18:55:08.669Z,6.74
2023-02-22T18:57:55.664Z,6.61
2023-02-22T19:00:41.856Z,6.51
2023-02-22T19:03:29.517Z,6.63
2023-02-22T19:06:18.014Z,6.43
2023-02-22T19:09:08.698Z,6.57
2023-02-22T19:11:55.536Z,6.63
2023-02-22T19:14:42.475Z,6.53
2023-02-22T19:17:31.097Z,6.43
2023-02-22T19:20:17.535Z,6.69
2023-02-22T19:23:04.092Z,6.32
2023-02-22T19:25:50.268Z,6.55
2023-02-22T19:28:36.601Z,6.38
2023-02-22T19:31:26.314Z,6.69
2023-02-22T19:34:14.574Z,6.49
2023-02-22T19:37:00.949Z,6.40
2023-02-22T19:39:47.179Z,6.38
2023-02-22T19:42:33.609Z,6.61
2023-02-22T19:45:20.591Z,6.56
2023-02-22T19:48:07.189Z,6.37
2023-02-22T19:50:57.755Z,6.40
2023-02-22T19:53:45.771Z,6.58
2023-02-22T19:56:35.151Z,6.51
2023-02-22T19:59:23.079Z,6.34
2023-02-22T20:02:10.981Z,6.20
2023-02-22T20:04:57.428Z,6.37
2023-02-22T20:07:44.083Z,6.10
2023-02-22T20:10:30.567Z,5.93
2023-02-22T20:13:17.041Z,6.28
2023-02-22T20:16:03.835Z,6.16
2023-02-22T20:18:50.814Z,6.32
2023-02-22T20:21:37.110Z,6.04
2023-02-22T20:24:24.091Z,6.07
2023-02-22T20:27:10.176Z,5.75
2023-02-22T20:29:56.446Z,5.98
2023-02-22T20:32:42.944Z,5.98
2023-02-22T20:35:29.347Z,6.01
2023-02-22T20:38:15.928Z,5.95
2023-02-22T20:41:06.648Z,5.69
2023-02-22T20:43:55.136Z,5.66
2023-02-22T20:46:42.859Z,5.65
2023-02-22T20:49:29.513Z,5.47
2023-02-22T20:52:15.636Z,5.42
2023-02-22T20:55:04.118Z,5.40
2023-02-22T20:57:50.639Z,5.52
2023-02-22T21:00:37.266Z,5.18
2023-02-22T21:03:23.455Z,5.53
2023-02-22T21:06:17.568Z,5.59
2023-02-22T21:09:08.759Z,5.68
2023-02-22T21:11:55.280Z,5.68
2023-02-22T21:14:44.135Z,5.66
2023-02-22T21:17:30.814Z,5.48
2023-02-22T21:20:21.732Z,5.69
2023-02-22T21:23:09.405Z,5.73
2023-02-22T21:25:56.951Z,5.77
2023-02-22T21:28:51.935Z,5.61
2023-02-22T21:31:38.395Z,5.81
2023-02-22T21:34:25.774Z,5.65
2023-02-22T21:37:12.414Z,5.51
2023-02-22T21:39:59.032Z,5.53
2023-02-22T21:42:49.272Z,5.77
2023-02-22T21:45:35.677Z,5.73
2023-02-22T21:48:21.925Z,5.71
2023-02-22T21:51:13.802Z,5.62
2023-02-22T21:54:03.377Z,5.73
2023-02-22T21:56:50.037Z,5.52
2023-02-22T21:59:36.419Z,5.71
2023-02-22T22:02:22.974Z,5.75
2023-02-22T22:05:09.276Z,5.73
2023-02-22T22:07:55.871Z,5.38
2023-02-22T22:10:42.244Z,5.48
2023-02-22T22:13:28.592Z,5.66
2023-02-22T22:16:18.484Z,5.63
2023-02-22T22:19:05.025Z,5.58
2023-02-22T22:21:53.853Z,5.31
2023-02-22T22:24:45.447Z,5.51
2023-02-22T22:27:32.466Z,5.56
2023-02-22T22:30:18.905Z,5.58
2023-02-22T22:33:11.256Z,5.79
2023-02-22T22:35:58.094Z,5.53
2023-02-22T22:38:47.010Z,5.89
2023-02-22T22:41:33.831Z,5.55
2023-02-22T22:44:22.443Z,5.96
2023-02-22T22:47:12.346Z,6.08
2023-02-22T22:50:01.474Z,6.07
2023-02-22T22:52:48.982Z,6.06
2023-02-22T22:55:40.683Z,6.26
2023-02-22T22:58:27.036Z,6.19
2023-02-22T23:01:19.287Z,6.54
2023-02-22T23:04:12.315Z,6.54
2023-02-22T23:06:58.882Z,6.25
2023-02-22T23:09:45.565Z,6.69
2023-02-22T23:12:32.075Z,6.75
2023-02-22T23:15:18.502Z,6.56
2023-02-22T23:18:07.443Z,6.46
2023-02-22T23:20:56.924Z,6.52
2023-02-22T23:23:44.235Z,6.51
2023-02-22T23:26:30.737Z,6.12
2023-02-22T23:29:18.879Z,6.38
2023-02-22T23:32:06.453Z,6.43
2023-02-22T23:34:53.117Z,6.40
2023-02-22T23:37:39.919Z,6.49
2023-02-22T23:40:27.157Z,6.29
2023-02-22T23:43:16.859Z,6.44
2023-02-22T23:46:10.767Z,6.15
2023-02-22T23:49:01.629Z,6.21
2023-02-22T23:51:49.288Z,6.27
2023-02-22T23:54:40.340Z,6.04
2023-02-22T23:57:27.180Z,6.51
